createdAt,value
2023-04-29T00:01:00.953Z,12.4041
2023-04-29T00:02:02.569Z,12.3538
2023-04-29T00:03:04.304Z,12.3582
2023-04-29T00:04:06.183Z,12.3810
2023-04-29T00:05:08.127Z,12.3337
2023-04-29T00:06:10.158Z,12.3214
2023-04-29T00:07:11.814Z,12.3216
2023-04-29T00:08:13.523Z,12.3397
2023-04-29T00:09:15.112Z,12.3260
2023-04-29T00:10:16.706Z,12.3219
2023-04-29T00:11:18.324Z,12.3018
2023-04-29T00:12:19.934Z,12.3268
2023-04-29T00:13:21.545Z,12.3225
2023-04-29T00:14:23.134Z,12.3106
2023-04-29T00:15:24.760Z,12.2875
2023-04-29T00:16:26.356Z,12.2542
2023-04-29T00:17:28.002Z,12.2478
2023-04-29T00:18:29.618Z,12.2468
2023-04-29T00:19:31.220Z,12.2416
2023-04-29T00:20:33.119Z,12.2553
2023-04-29T00:21:34.764Z,12.2534
2023-04-29T00:22:36.358Z,12.2518
2023-04-29T00:23:37.950Z,12.2636
2023-04-29T00:24:39.555Z,12.3299
2023-04-29T00:25:41.141Z,12.3888
2023-04-29T00:26:42.744Z,12.4381
2023-04-29T00:27:44.373Z,12.5710
2023-04-29T00:28:46.001Z,12.7052
2023-04-29T00:29:47.687Z,12.7690
2023-04-29T00:30:49.265Z,12.8313
2023-04-29T00:31:51.001Z,12.8774
2023-04-29T00:32:52.645Z,12.8816
2023-04-29T00:33:54.224Z,12.9087
2023-04-29T00:34:55.806Z,12.9040
2023-04-29T00:35:57.444Z,12.9033
2023-04-29T00:36:59.025Z,12.9186
2023-04-29T00:38:00.696Z,12.9120
2023-04-29T00:39:02.258Z,12.8956
2023-04-29T00:40:03.871Z,12.8654
2023-04-29T00:41:06.128Z,12.8684
2023-04-29T00:42:07.734Z,12.8838
2023-04-29T00:43:09.638Z,12.9460
2023-04-29T00:44:11.263Z,12.9725
2023-04-29T00:45:12.868Z,12.9992
2023-04-29T00:46:14.457Z,13.0314
2023-04-29T00:47:16.064Z,13.0424
2023-04-29T00:48:17.701Z,13.0790
2023-04-29T00:49:19.339Z,13.0858
2023-04-29T00:50:20.932Z,13.0749
2023-04-29T00:51:22.656Z,13.0496
2023-04-29T00:52:24.223Z,13.0569
2023-04-29T00:53:25.851Z,13.0479
2023-04-29T00:54:27.469Z,13.0625
2023-04-29T00:55:29.079Z,13.0591
2023-04-29T00:56:30.658Z,13.0511
2023-04-29T00:57:32.299Z,13.0679
2023-04-29T00:58:33.899Z,13.0680
2023-04-29T00:59:35.510Z,13.0748
2023-04-29T01:00:37.146Z,13.0825
2023-04-29T01:01:38.804Z,13.0837
2023-04-29T01:02:40.515Z,13.0716
2023-04-29T01:03:42.330Z,13.0633
2023-04-29T01:04:44.048Z,13.0624
2023-04-29T01:05:45.714Z,13.0715
2023-04-29T01:06:47.373Z,13.0902
2023-04-29T01:07:49.007Z,13.0848
2023-04-29T01:08:50.644Z,13.0776
2023-04-29T01:09:52.506Z,13.1048
2023-04-29T01:10:54.263Z,13.1195
2023-04-29T01:11:55.857Z,13.1029
2023-04-29T01:12:57.501Z,13.1075
2023-04-29T01:13:59.106Z,13.0939
2023-04-29T01:15:00.728Z,13.0781
2023-04-29T01:16:02.397Z,13.0757
2023-04-29T01:17:03.987Z,13.1004
2023-04-29T01:18:05.606Z,13.1029
2023-04-29T01:19:07.179Z,13.0839
2023-04-29T01:20:08.794Z,13.1010
2023-04-29T01:21:10.858Z,13.1412
2023-04-29T01:22:12.455Z,13.2166
2023-04-29T01:23:14.067Z,13.2793
2023-04-29T01:24:15.712Z,13.2752
2023-04-29T01:25:17.299Z,13.2540
2023-04-29T01:26:18.941Z,13.2256
2023-04-29T01:27:20.542Z,13.1879
2023-04-29T01:28:22.193Z,13.1932
2023-04-29T01:29:23.784Z,13.2081
2023-04-29T01:30:27.270Z,13.1997
2023-04-29T01:31:28.915Z,13.1871
2023-04-29T01:32:31.531Z,13.1646
2023-04-29T01:33:31.028Z,13.1953
2023-04-29T01:34:32.652Z,13.3085
2023-04-29T01:35:34.248Z,13.4204
2023-04-29T01:36:35.877Z,13.4596
2023-04-29T01:37:37.484Z,13.4423
2023-04-29T01:38:39.093Z,13.4194
2023-04-29T01:39:40.692Z,13.3750
2023-04-29T01:40:42.312Z,13.3472
2023-04-29T01:41:43.941Z,13.3194
2023-04-29T01:42:45.517Z,13.3560
2023-04-29T01:43:47.152Z,13.3597
2023-04-29T01:44:48.728Z,13.3068
2023-04-29T01:45:50.393Z,13.2746
2023-04-29T01:46:52.054Z,13.2350
2023-04-29T01:47:53.689Z,13.1737
2023-04-29T01:48:55.286Z,13.1544
2023-04-29T01:49:56.893Z,13.2044
2023-04-29T01:50:58.505Z,13.2484
2023-04-29T01:52:00.119Z,13.2689
2023-04-29T01:53:01.709Z,13.2446
2023-04-29T01:54:03.382Z,13.2689
2023-04-29T01:55:04.955Z,13.2785
2023-04-29T01:56:06.572Z,13.2237
2023-04-29T01:57:08.181Z,13.2003
2023-04-29T01:58:09.831Z,13.1943
2023-04-29T01:59:11.445Z,13.1711
2023-04-29T02:00:13.038Z,13.1591
2023-04-29T02:01:14.685Z,13.1964
2023-04-29T02:02:16.262Z,13.1640
2023-04-29T02:03:18.045Z,13.1656
2023-04-29T02:04:19.740Z,13.1686
2023-04-29T02:05:21.345Z,13.1585
2023-04-29T02:06:22.973Z,13.1065
2023-04-29T02:07:24.558Z,13.0665
2023-04-29T02:08:26.188Z,13.0553
2023-04-29T02:09:27.798Z,13.0464
2023-04-29T02:10:29.629Z,12.9966
2023-04-29T02:11:31.215Z,12.9494
2023-04-29T02:12:32.827Z,12.9164
2023-04-29T02:13:34.461Z,12.9095
2023-04-29T02:14:37.811Z,12.8838
2023-04-29T02:15:39.639Z,12.8585
2023-04-29T02:16:41.321Z,12.8467
2023-04-29T02:17:42.968Z,12.8236
2023-04-29T02:18:44.571Z,12.8263
2023-04-29T02:19:46.158Z,12.8458
2023-04-29T02:20:47.782Z,12.8833
2023-04-29T02:21:49.375Z,12.8989
2023-04-29T02:22:50.988Z,12.9045
2023-04-29T02:23:52.638Z,12.8981
2023-04-29T02:24:54.407Z,12.8882
2023-04-29T02:25:56.045Z,12.8861
2023-04-29T02:26:57.649Z,12.8897
2023-04-29T02:27:59.284Z,12.8585
2023-04-29T02:29:00.901Z,12.8921
2023-04-29T02:30:02.540Z,12.9331
2023-04-29T02:31:04.178Z,12.9651
2023-04-29T02:32:05.801Z,12.9568
2023-04-29T02:33:08.481Z,12.9155
2023-04-29T02:34:10.374Z,12.8733
2023-04-29T02:35:11.969Z,12.9215
2023-04-29T02:36:13.588Z,12.9521
2023-04-29T02:37:15.197Z,13.0098
2023-04-29T02:38:16.791Z,13.0251
2023-04-29T02:39:18.423Z,13.0355
2023-04-29T02:40:20.046Z,13.0522
2023-04-29T02:41:21.670Z,13.0738
2023-04-29T02:42:23.293Z,13.0487
2023-04-29T02:43:25.242Z,13.0454
2023-04-29T02:44:26.901Z,12.9791
2023-04-29T02:45:28.475Z,12.8888
2023-04-29T02:46:30.166Z,12.8110
2023-04-29T02:47:31.775Z,12.7602
2023-04-29T02:48:33.384Z,12.6954
2023-04-29T02:49:34.978Z,12.6028
2023-04-29T02:50:36.596Z,12.5368
2023-04-29T02:51:38.221Z,12.4894
2023-04-29T02:52:39.907Z,12.4636
2023-04-29T02:53:41.533Z,12.4410
2023-04-29T02:54:43.149Z,12.4111
2023-04-29T02:55:44.771Z,12.3951
2023-04-29T02:56:46.398Z,12.4092
2023-04-29T02:57:47.989Z,12.4358
2023-04-29T02:58:49.604Z,12.4077
2023-04-29T02:59:51.485Z,12.3910
2023-04-29T03:00:53.298Z,12.3489
2023-04-29T03:01:54.920Z,12.3342
2023-04-29T03:02:56.653Z,12.3310
2023-04-29T03:03:58.672Z,12.3131
2023-04-29T03:05:00.371Z,12.2969
2023-04-29T03:06:01.997Z,12.2830
2023-04-29T03:07:03.601Z,12.2643
2023-04-29T03:08:05.248Z,12.2641
2023-04-29T03:09:06.928Z,12.2577
2023-04-29T03:10:08.520Z,12.2518
2023-04-29T03:11:10.149Z,12.2577
2023-04-29T03:12:11.788Z,12.2693
2023-04-29T03:13:13.371Z,12.2459
2023-04-29T03:14:14.988Z,12.2446
2023-04-29T03:15:16.621Z,12.2418
2023-04-29T03:16:18.228Z,12.2231
2023-04-29T03:17:19.861Z,12.2006
2023-04-29T03:18:21.492Z,12.1989
2023-04-29T03:19:23.105Z,12.1801
2023-04-29T03:20:24.688Z,12.1535
2023-04-29T03:21:26.312Z,12.1430
2023-04-29T03:22:27.921Z,12.1397
2023-04-29T03:23:29.547Z,12.1421
2023-04-29T03:24:31.169Z,12.1109
2023-04-29T03:25:33.081Z,12.0877
2023-04-29T03:26:34.699Z,12.0748
2023-04-29T03:27:36.303Z,12.0875
2023-04-29T03:28:37.902Z,12.0908
2023-04-29T03:29:39.559Z,12.1301
2023-04-29T03:30:41.450Z,12.1549
2023-04-29T03:31:43.082Z,12.1746
2023-04-29T03:32:44.695Z,12.1991
2023-04-29T03:33:46.330Z,12.2501
2023-04-29T03:34:47.926Z,12.3876
2023-04-29T03:35:49.801Z,12.6259
2023-04-29T03:36:51.431Z,12.6434
2023-04-29T03:37:53.065Z,12.7313
2023-04-29T03:38:54.693Z,12.7433
2023-04-29T03:39:56.312Z,12.7306
2023-04-29T03:40:59.491Z,12.7410
2023-04-29T03:42:01.129Z,12.7313
2023-04-29T03:43:02.750Z,12.7479
2023-04-29T03:44:04.377Z,12.7818
2023-04-29T03:45:06.049Z,12.8302
2023-04-29T03:46:07.931Z,12.8725
2023-04-29T03:47:09.575Z,12.8308
2023-04-29T03:48:11.159Z,12.7602
2023-04-29T03:49:12.867Z,12.6923
2023-04-29T03:50:14.640Z,12.7503
2023-04-29T03:51:16.305Z,12.8282
2023-04-29T03:52:17.920Z,12.8279
2023-04-29T03:53:19.806Z,12.7242
2023-04-29T03:54:21.392Z,12.6720
2023-04-29T03:55:23.036Z,12.5996
2023-04-29T03:56:24.692Z,12.5706
2023-04-29T03:57:26.351Z,12.5871
2023-04-29T03:58:27.949Z,12.6614
2023-04-29T03:59:29.568Z,12.6789
2023-04-29T04:00:31.265Z,12.6675
2023-04-29T04:01:32.902Z,12.6480
2023-04-29T04:02:34.612Z,12.5926
2023-04-29T04:03:36.591Z,12.5205
2023-04-29T04:04:38.342Z,12.4826
2023-04-29T04:05:40.368Z,12.4319
2023-04-29T04:06:41.992Z,12.3541
2023-04-29T04:07:43.602Z,12.2932
2023-04-29T04:08:45.280Z,12.2376
2023-04-29T04:09:46.896Z,12.2010
2023-04-29T04:10:48.527Z,12.1472
2023-04-29T04:11:50.125Z,12.1254
2023-04-29T04:12:51.744Z,12.1061
2023-04-29T04:13:53.342Z,12.1044
2023-04-29T04:14:54.970Z,12.1102
2023-04-29T04:15:58.161Z,12.0976
2023-04-29T04:16:59.745Z,12.0904
2023-04-29T04:18:01.419Z,12.0960
2023-04-29T04:19:02.996Z,12.0852
2023-04-29T04:20:04.622Z,12.1158
2023-04-29T04:21:06.230Z,12.1177
2023-04-29T04:22:07.845Z,12.1102
2023-04-29T04:23:09.436Z,12.1153
2023-04-29T04:24:11.105Z,12.1102
2023-04-29T04:25:12.707Z,12.1219
2023-04-29T04:26:14.344Z,12.5715
2023-04-29T04:27:15.948Z,12.9807
2023-04-29T04:28:17.945Z,12.6882
2023-04-29T04:29:19.551Z,12.5448
2023-04-29T04:30:21.202Z,12.4441
2023-04-29T04:31:22.906Z,12.4129
2023-04-29T04:32:24.546Z,12.4008
2023-04-29T04:33:26.146Z,12.3945
2023-04-29T04:34:27.786Z,12.5054
2023-04-29T04:35:29.410Z,12.5027
2023-04-29T04:36:31.021Z,12.4785
2023-04-29T04:37:32.627Z,12.3750
2023-04-29T04:38:34.247Z,12.3873
2023-04-29T04:39:35.844Z,12.4363
2023-04-29T04:40:37.458Z,12.3579
2023-04-29T04:41:39.087Z,12.3898
2023-04-29T04:42:40.689Z,12.3378
2023-04-29T04:43:42.355Z,12.3431
2023-04-29T04:44:43.927Z,12.3255
2023-04-29T04:45:45.556Z,12.4347
2023-04-29T04:46:47.168Z,12.7027
2023-04-29T04:47:48.875Z,12.7985
2023-04-29T04:48:50.462Z,12.6257
2023-04-29T04:49:52.234Z,12.5607
2023-04-29T04:50:53.897Z,12.4127
2023-04-29T04:51:55.595Z,12.3148
2023-04-29T04:52:57.218Z,12.2586
2023-04-29T04:53:58.843Z,12.2753
2023-04-29T04:55:00.456Z,12.3123
2023-04-29T04:56:02.038Z,12.3180
2023-04-29T04:57:03.669Z,12.3337
2023-04-29T04:58:05.251Z,12.3414
2023-04-29T04:59:06.923Z,12.2812
2023-04-29T05:00:08.505Z,12.2184
2023-04-29T05:01:10.134Z,12.2416
2023-04-29T05:02:11.794Z,12.3103
2023-04-29T05:03:13.507Z,12.3874
2023-04-29T05:04:15.248Z,12.4669
2023-04-29T05:05:16.953Z,12.4427
2023-04-29T05:06:18.604Z,12.4810
2023-04-29T05:07:20.263Z,12.4542
2023-04-29T05:08:21.931Z,12.4226
2023-04-29T05:09:23.590Z,12.3780
2023-04-29T05:10:25.241Z,12.4259
2023-04-29T05:11:26.919Z,12.4419
2023-04-29T05:12:28.562Z,12.5486
2023-04-29T05:13:30.228Z,12.5525
2023-04-29T05:14:31.864Z,12.6450
2023-04-29T05:15:33.549Z,12.5845
2023-04-29T05:16:35.267Z,12.4878
2023-04-29T05:17:37.009Z,12.4802
2023-04-29T05:18:38.653Z,12.3995
2023-04-29T05:19:40.284Z,12.3704
2023-04-29T05:20:41.944Z,12.4363
2023-04-29T05:21:43.590Z,12.4721
2023-04-29T05:22:45.266Z,12.4410
2023-04-29T05:23:46.946Z,12.4300
2023-04-29T05:24:48.610Z,12.5621
2023-04-29T05:25:50.243Z,12.5443
2023-04-29T05:26:51.936Z,12.6281
2023-04-29T05:27:53.583Z,12.6141
2023-04-29T05:28:55.296Z,12.6381
2023-04-29T05:29:56.945Z,12.6672
2023-04-29T05:30:58.655Z,12.7152
2023-04-29T05:32:00.313Z,12.9366
2023-04-29T05:33:02.040Z,13.0206
2023-04-29T05:34:03.729Z,13.0333
2023-04-29T05:35:07.298Z,13.2747
2023-04-29T05:36:05.549Z,13.1908
2023-04-29T05:37:07.204Z,13.1184
2023-04-29T05:38:08.841Z,13.1012
2023-04-29T05:39:10.513Z,13.1304
2023-04-29T05:40:12.185Z,13.1821
2023-04-29T05:41:14.112Z,13.4895
2023-04-29T05:42:15.775Z,13.5850
2023-04-29T05:43:17.480Z,13.5455
2023-04-29T05:44:19.153Z,13.4469
2023-04-29T05:45:20.812Z,13.4870
2023-04-29T05:46:23.966Z,13.4353
2023-04-29T05:47:25.713Z,13.4584
2023-04-29T05:48:27.348Z,13.4659
2023-04-29T05:49:28.977Z,13.5339
2023-04-29T05:50:30.669Z,13.5207
2023-04-29T05:51:32.485Z,13.6423
2023-04-29T05:52:34.134Z,13.7631
2023-04-29T05:53:35.774Z,13.7931
2023-04-29T05:54:37.550Z,13.9550
2023-04-29T05:55:39.213Z,13.9912
2023-04-29T05:56:40.900Z,13.9585
2023-04-29T05:57:42.529Z,14.0644
2023-04-29T05:58:44.139Z,14.6082
2023-04-29T05:59:45.793Z,15.1330
2023-04-29T06:00:47.463Z,15.3626
2023-04-29T06:01:49.075Z,15.9025
2023-04-29T06:02:57.993Z,15.9997
2023-04-29T06:03:51.299Z,16.1714
2023-04-29T06:04:53.422Z,16.0560
2023-04-29T06:05:55.294Z,16.0126
2023-04-29T06:06:57.161Z,15.6003
2023-04-29T06:07:58.854Z,15.1605
2023-04-29T06:09:00.468Z,14.7415
2023-04-29T06:10:02.158Z,14.7206
2023-04-29T06:11:03.818Z,15.0690
2023-04-29T06:12:05.443Z,15.0995
2023-04-29T06:13:07.142Z,14.7018
2023-04-29T06:14:08.798Z,14.5813
2023-04-29T06:15:10.435Z,14.4158
2023-04-29T06:16:12.087Z,14.1871
2023-04-29T06:17:13.797Z,14.2942
2023-04-29T06:18:15.436Z,14.5494
2023-04-29T06:19:17.102Z,14.6372
2023-04-29T06:20:18.736Z,14.7704
2023-04-29T06:21:20.405Z,14.6116
2023-04-29T06:22:22.197Z,14.5496
2023-04-29T06:23:23.855Z,14.4860
2023-04-29T06:24:25.493Z,14.6445
2023-04-29T06:25:27.173Z,14.8372
2023-04-29T06:26:28.816Z,15.0934
2023-04-29T06:27:30.489Z,15.1284
2023-04-29T06:28:34.015Z,15.0662
2023-04-29T06:29:35.662Z,15.4423
2023-04-29T06:30:37.364Z,15.1881
2023-04-29T06:31:39.005Z,14.9721
2023-04-29T06:32:40.704Z,15.0893
2023-04-29T06:33:42.369Z,15.0164
2023-04-29T06:34:44.008Z,14.9242
2023-04-29T06:35:45.655Z,14.7810
2023-04-29T06:36:47.313Z,14.6685
2023-04-29T06:37:48.973Z,14.6014
2023-04-29T06:38:50.658Z,14.6418
2023-04-29T06:39:52.582Z,14.7982
2023-04-29T06:40:54.434Z,15.1529
2023-04-29T06:41:56.103Z,15.2120
2023-04-29T06:42:57.702Z,15.1807
2023-04-29T06:43:59.391Z,15.3523
2023-04-29T06:45:01.050Z,15.7135
2023-04-29T06:46:02.975Z,15.5638
2023-04-29T06:47:04.669Z,15.4713
2023-04-29T06:48:06.345Z,15.5010
2023-04-29T06:49:07.971Z,15.4938
2023-04-29T06:50:09.606Z,15.4162
2023-04-29T06:51:11.262Z,15.2170
2023-04-29T06:52:12.912Z,15.4102
2023-04-29T06:53:14.579Z,15.4449
2023-04-29T06:54:16.207Z,15.5475
2023-04-29T06:55:17.869Z,15.1548
2023-04-29T06:56:19.727Z,14.9036
2023-04-29T06:57:21.394Z,14.8092
2023-04-29T06:58:23.031Z,14.9952
2023-04-29T06:59:24.694Z,15.1680
2023-04-29T07:00:26.407Z,14.9729
2023-04-29T07:01:28.279Z,15.0340
2023-04-29T07:02:30.018Z,14.8468
2023-04-29T07:03:31.768Z,14.6842
2023-04-29T07:04:33.462Z,14.6850
2023-04-29T07:05:35.124Z,14.6528
2023-04-29T07:06:36.812Z,14.7324
2023-04-29T07:07:38.432Z,14.5777
2023-04-29T07:08:40.178Z,14.6000
2023-04-29T07:09:41.775Z,14.2767
2023-04-29T07:10:43.751Z,14.2348
2023-04-29T07:11:45.381Z,14.2406
2023-04-29T07:12:47.001Z,14.2548
2023-04-29T07:13:48.662Z,14.4222
2023-04-29T07:14:50.305Z,14.3886
2023-04-29T07:15:51.981Z,14.4833
2023-04-29T07:16:53.632Z,14.3177
2023-04-29T07:17:55.280Z,14.4890
2023-04-29T07:18:56.938Z,14.6878
2023-04-29T07:19:58.593Z,14.8615
2023-04-29T07:21:00.257Z,15.0134
2023-04-29T07:22:01.920Z,14.7208
2023-04-29T07:23:03.595Z,14.5686
2023-04-29T07:24:05.235Z,14.5835
2023-04-29T07:25:06.891Z,14.6005
2023-04-29T07:26:08.602Z,14.5468
2023-04-29T07:27:10.236Z,14.4338
2023-04-29T07:28:11.918Z,14.4137
2023-04-29T07:29:13.608Z,14.4308
2023-04-29T07:30:15.225Z,14.5153
2023-04-29T07:31:16.911Z,14.5146
2023-04-29T07:32:18.586Z,14.5645
2023-04-29T07:33:20.278Z,14.7276
2023-04-29T07:34:21.931Z,14.4951
2023-04-29T07:35:23.605Z,14.5108
2023-04-29T07:36:25.233Z,14.8546
2023-04-29T07:37:26.922Z,15.1240
2023-04-29T07:38:28.563Z,15.0414
2023-04-29T07:39:30.252Z,15.1287
2023-04-29T07:40:31.912Z,15.1982
2023-04-29T07:41:33.575Z,15.3345
2023-04-29T07:42:35.204Z,15.5781
2023-04-29T07:43:40.272Z,15.5593
2023-04-29T07:44:39.621Z,15.1181
2023-04-29T07:45:41.454Z,15.0361
2023-04-29T07:46:43.160Z,15.2249
2023-04-29T07:47:44.921Z,15.2502
2023-04-29T07:48:46.550Z,15.6999
2023-04-29T07:49:48.200Z,16.1257
2023-04-29T07:50:49.845Z,17.2681
2023-04-29T07:51:51.521Z,17.8622
2023-04-29T07:52:53.164Z,18.7860
2023-04-29T07:53:54.813Z,19.0505
2023-04-29T07:54:56.446Z,17.1924
2023-04-29T07:55:58.106Z,17.1177
2023-04-29T07:56:59.774Z,16.9969
2023-04-29T07:58:01.381Z,16.5511
2023-04-29T07:59:03.045Z,16.3082
2023-04-29T08:00:04.690Z,17.5430
2023-04-29T08:01:06.329Z,18.7984
2023-04-29T08:02:08.005Z,18.0980
2023-04-29T08:03:09.717Z,17.9703
2023-04-29T08:04:11.823Z,18.6862
2023-04-29T08:05:13.901Z,20.1191
2023-04-29T08:06:15.796Z,18.9495
2023-04-29T08:07:17.504Z,17.8647
2023-04-29T08:08:19.157Z,19.0868
2023-04-29T08:09:20.825Z,17.9455
2023-04-29T08:10:22.805Z,17.6643
2023-04-29T08:11:24.555Z,19.1155
2023-04-29T08:12:26.186Z,19.6139
2023-04-29T08:13:27.840Z,18.8287
2023-04-29T08:14:29.509Z,18.2965
2023-04-29T08:15:31.157Z,18.5662
2023-04-29T08:16:32.847Z,19.3147
2023-04-29T08:17:34.545Z,18.7470
2023-04-29T08:18:36.222Z,18.8626
2023-04-29T08:19:37.879Z,18.9858
2023-04-29T08:20:39.557Z,17.7482
2023-04-29T08:21:41.247Z,17.2683
2023-04-29T08:22:42.904Z,17.4522
2023-04-29T08:23:44.574Z,18.0683
2023-04-29T08:24:46.235Z,18.1924
2023-04-29T08:25:47.907Z,19.2412
2023-04-29T08:26:49.540Z,18.9848
2023-04-29T08:27:51.191Z,18.7747
2023-04-29T08:28:52.856Z,18.9863
2023-04-29T08:29:54.501Z,17.7120
2023-04-29T08:30:56.168Z,17.8790
2023-04-29T08:31:57.843Z,17.4984
2023-04-29T08:32:59.495Z,17.7900
2023-04-29T08:34:01.140Z,18.6811
2023-04-29T08:35:02.814Z,19.3307
2023-04-29T08:36:04.472Z,20.2578
2023-04-29T08:37:06.129Z,19.2396
2023-04-29T08:38:07.760Z,17.3577
2023-04-29T08:39:09.473Z,18.0622
2023-04-29T08:40:11.095Z,18.5977
2023-04-29T08:41:12.788Z,20.0569
2023-04-29T08:42:14.487Z,19.2220
2023-04-29T08:43:16.131Z,18.1938
2023-04-29T08:44:17.794Z,17.7766
2023-04-29T08:45:19.437Z,18.7445
2023-04-29T08:46:21.210Z,18.1435
2023-04-29T08:47:22.880Z,18.1292
2023-04-29T08:48:24.690Z,19.9122
2023-04-29T08:50:30.106Z,20.4868
2023-04-29T08:51:31.749Z,19.5938
2023-04-29T08:52:33.385Z,19.5444
2023-04-29T08:53:35.018Z,20.3406
2023-04-29T08:54:36.680Z,20.4867
2023-04-29T08:55:38.348Z,20.0710
2023-04-29T08:56:40.412Z,20.0564
2023-04-29T08:57:42.046Z,19.5301
2023-04-29T08:58:43.727Z,20.3189
2023-04-29T08:59:45.348Z,21.3008
2023-04-29T09:00:46.989Z,20.8671
2023-04-29T09:01:48.661Z,20.2537
2023-04-29T09:02:50.439Z,19.4760
2023-04-29T09:03:52.305Z,18.6624
2023-04-29T09:04:54.240Z,19.3223
2023-04-29T09:05:56.247Z,21.2556
2023-04-29T09:06:57.882Z,20.9835
2023-04-29T09:07:59.543Z,21.4137
2023-04-29T09:09:01.198Z,20.9640
2023-04-29T09:10:02.830Z,19.0269
2023-04-29T09:11:04.500Z,20.2022
2023-04-29T09:12:06.157Z,20.7104
2023-04-29T09:13:07.823Z,20.4158
2023-04-29T09:14:09.477Z,20.0643
2023-04-29T09:15:11.159Z,19.5030
2023-04-29T09:16:12.871Z,20.2822
2023-04-29T09:17:14.507Z,19.8207
2023-04-29T09:18:16.187Z,18.9074
2023-04-29T09:19:17.827Z,18.2043
2023-04-29T09:20:19.546Z,18.6068
2023-04-29T09:21:22.384Z,18.6094
2023-04-29T09:22:24.422Z,19.6713
2023-04-29T09:23:26.075Z,20.3879
2023-04-29T09:24:27.721Z,19.8590
2023-04-29T09:25:30.315Z,20.4980
2023-04-29T09:26:31.980Z,21.7840
2023-04-29T09:27:33.666Z,22.1432
2023-04-29T09:28:35.320Z,20.6205
2023-04-29T09:29:36.984Z,18.6495
2023-04-29T09:30:38.932Z,19.5987
2023-04-29T09:31:40.607Z,20.9256
2023-04-29T09:32:42.295Z,20.4182
2023-04-29T09:33:43.953Z,18.3589
2023-04-29T09:34:45.609Z,17.7885
2023-04-29T09:35:47.265Z,18.3815
2023-04-29T09:36:48.945Z,18.3298
2023-04-29T09:37:50.746Z,18.1189
2023-04-29T09:38:52.450Z,19.5144
2023-04-29T09:39:54.082Z,20.0890
2023-04-29T09:40:59.439Z,20.3596
2023-04-29T09:41:57.989Z,19.7481
2023-04-29T09:42:59.626Z,20.9689
2023-04-29T09:44:01.308Z,21.0917
2023-04-29T09:45:06.876Z,20.8330
2023-04-29T09:46:08.546Z,20.9948
2023-04-29T09:47:10.181Z,19.8507
2023-04-29T09:48:11.849Z,21.2661
2023-04-29T09:49:13.503Z,20.5291
2023-04-29T09:50:15.423Z,20.2526
2023-04-29T09:51:17.064Z,20.3070
2023-04-29T09:52:18.725Z,21.7918
2023-04-29T09:53:20.440Z,22.3380
2023-04-29T09:54:22.392Z,22.4892
2023-04-29T09:55:24.032Z,22.9120
2023-04-29T09:56:25.657Z,24.0588
2023-04-29T09:57:27.327Z,23.5114
2023-04-29T09:58:28.966Z,23.6948
2023-04-29T09:59:30.640Z,23.4745
2023-04-29T10:00:32.284Z,22.6727
2023-04-29T10:01:33.938Z,22.9005
2023-04-29T10:02:35.670Z,21.3966
2023-04-29T10:03:37.881Z,20.1882
2023-04-29T10:04:40.245Z,20.4304
2023-04-29T10:05:42.081Z,20.2214
2023-04-29T10:06:43.738Z,19.0142
2023-04-29T10:07:45.381Z,18.8488
2023-04-29T10:08:47.068Z,18.8600
2023-04-29T10:09:48.910Z,19.5153
2023-04-29T10:10:52.221Z,20.5145
2023-04-29T10:11:53.878Z,20.1120
2023-04-29T10:12:55.515Z,19.9484
2023-04-29T10:13:57.170Z,20.2668
2023-04-29T10:14:58.841Z,20.1351
2023-04-29T10:16:00.504Z,19.3995
2023-04-29T10:17:02.052Z,19.6038
2023-04-29T10:18:03.659Z,19.9993
2023-04-29T10:19:05.136Z,21.4898
2023-04-29T10:20:06.764Z,21.9993
2023-04-29T10:21:08.446Z,22.4726
2023-04-29T10:22:10.089Z,22.8553
2023-04-29T10:23:11.769Z,22.6773
2023-04-29T10:24:13.415Z,22.0578
2023-04-29T10:25:15.079Z,21.9065
2023-04-29T10:26:16.716Z,22.5014
2023-04-29T10:27:18.386Z,21.4577
2023-04-29T10:28:20.058Z,20.9620
2023-04-29T10:29:21.708Z,21.8474
2023-04-29T10:30:23.378Z,22.2394
2023-04-29T10:31:25.067Z,21.8972
2023-04-29T10:32:28.800Z,19.7932
2023-04-29T10:33:28.632Z,19.6628
2023-04-29T10:34:30.275Z,19.9539
2023-04-29T10:35:31.997Z,20.0993
2023-04-29T10:36:33.672Z,20.1598
2023-04-29T10:37:35.314Z,19.1311
2023-04-29T10:38:36.966Z,19.9859
2023-04-29T10:39:38.637Z,20.4692
2023-04-29T10:40:40.295Z,21.0496
2023-04-29T10:41:41.976Z,21.8160
2023-04-29T10:42:43.651Z,21.4854
2023-04-29T10:43:45.304Z,21.4635
2023-04-29T10:44:46.956Z,21.9076
2023-04-29T10:45:48.638Z,22.6517
2023-04-29T10:46:50.341Z,22.5337
2023-04-29T10:47:52.031Z,22.2639
2023-04-29T10:48:53.612Z,21.8267
2023-04-29T10:49:55.286Z,21.3131
2023-04-29T10:50:56.945Z,21.2127
2023-04-29T10:51:58.637Z,19.9053
2023-04-29T10:53:00.276Z,19.4016
2023-04-29T10:54:01.926Z,19.4002
2023-04-29T10:55:03.580Z,18.8790
2023-04-29T10:56:05.219Z,18.7725
2023-04-29T10:57:06.890Z,18.2774
2023-04-29T10:58:08.528Z,18.0859
2023-04-29T10:59:10.184Z,18.0069
2023-04-29T11:00:13.221Z,18.7299
2023-04-29T11:01:12.714Z,18.9188
2023-04-29T11:02:14.392Z,19.1542
2023-04-29T11:03:16.073Z,18.0521
2023-04-29T11:04:17.784Z,17.8894
2023-04-29T11:05:19.406Z,17.6007
2023-04-29T11:06:21.081Z,17.3778
2023-04-29T11:07:22.727Z,17.3437
2023-04-29T11:08:24.547Z,17.4488
2023-04-29T11:09:26.024Z,17.0819
2023-04-29T11:10:27.942Z,17.0193
2023-04-29T11:11:29.569Z,17.1376
2023-04-29T11:12:31.241Z,17.0134
2023-04-29T11:13:32.902Z,16.9977
2023-04-29T11:14:34.568Z,17.1538
2023-04-29T11:15:40.115Z,17.6915
2023-04-29T11:16:41.802Z,17.8476
2023-04-29T11:17:43.425Z,17.7281
2023-04-29T11:18:45.128Z,17.8617
2023-04-29T11:19:46.817Z,17.6343
2023-04-29T11:20:48.421Z,17.7153
2023-04-29T11:21:50.120Z,17.9775
2023-04-29T11:22:51.784Z,18.0127
2023-04-29T11:23:53.483Z,18.3071
2023-04-29T11:24:55.702Z,18.8664
2023-04-29T11:25:57.613Z,18.6749
2023-04-29T11:26:59.496Z,19.1060
2023-04-29T11:28:01.162Z,19.4768
2023-04-29T11:29:02.876Z,19.6012
2023-04-29T11:30:04.660Z,18.8832
2023-04-29T11:31:06.371Z,18.4293
2023-04-29T11:32:08.160Z,18.1258
2023-04-29T11:33:15.450Z,18.2521
2023-04-29T11:34:09.911Z,18.0929
2023-04-29T11:35:11.614Z,18.5780
2023-04-29T11:36:13.331Z,18.4186
2023-04-29T11:37:14.962Z,18.6930
2023-04-29T11:38:16.656Z,19.1671
2023-04-29T11:39:18.318Z,18.9490
2023-04-29T11:40:20.110Z,19.0924
2023-04-29T11:41:21.614Z,19.2673
2023-04-29T11:42:23.295Z,19.3994
2023-04-29T11:43:24.973Z,19.0797
2023-04-29T11:44:26.643Z,18.9038
2023-04-29T11:45:28.344Z,18.6795
2023-04-29T11:46:30.133Z,19.1378
2023-04-29T11:47:31.875Z,19.2784
2023-04-29T11:48:33.821Z,19.2883
2023-04-29T11:49:35.520Z,19.4374
2023-04-29T11:50:37.376Z,19.8057
2023-04-29T11:51:39.069Z,20.1131
2023-04-29T11:52:40.752Z,20.2685
2023-04-29T11:53:42.432Z,19.9928
2023-04-29T11:54:44.105Z,19.6059
2023-04-29T11:55:45.851Z,20.4783
2023-04-29T11:56:47.531Z,21.2190
2023-04-29T11:57:49.211Z,21.4158
2023-04-29T11:58:50.896Z,21.0333
2023-04-29T11:59:52.558Z,19.8697
2023-04-29T12:00:54.523Z,19.8401
2023-04-29T12:01:56.168Z,20.2481
2023-04-29T12:02:58.284Z,20.3871
2023-04-29T12:04:00.512Z,20.1441
2023-04-29T12:05:02.794Z,20.1488
2023-04-29T12:06:05.658Z,19.8133
2023-04-29T12:07:05.183Z,20.5582
2023-04-29T12:08:06.853Z,21.4657
2023-04-29T12:09:08.539Z,22.1046
2023-04-29T12:10:10.258Z,22.1668
2023-04-29T12:11:11.957Z,22.0424
2023-04-29T12:12:13.676Z,21.4290
2023-04-29T12:13:15.374Z,21.2072
2023-04-29T12:14:17.086Z,21.0121
2023-04-29T12:15:18.782Z,20.3514
2023-04-29T12:16:20.522Z,20.7506
2023-04-29T12:17:22.287Z,20.9127
2023-04-29T12:18:23.917Z,20.3883
2023-04-29T12:19:25.659Z,19.7830
2023-04-29T12:20:27.355Z,20.0926
2023-04-29T12:21:29.058Z,20.6990
2023-04-29T12:22:30.732Z,20.9365
2023-04-29T12:23:39.437Z,20.8822
2023-04-29T12:24:41.148Z,20.8117
2023-04-29T12:25:42.829Z,20.5861
2023-04-29T12:26:44.544Z,20.3144
2023-04-29T12:27:46.224Z,19.3867